Time;durP1;ratioP1;P1;durP2;ratioP2;P2;SDS_P1;SDS_P2;PMS_P1;PMS_P2;Temp;Humidity;BMP_temperature;BMP_pressure;BME280_temperature;BME280_humidity;BME280_pressure;Samples;Min_cycle;Max_cycle;Signal;HPM_P1;HPM_P2
2022/04/12 00:00:36;;;;;;;8.33;5.50;;;5.00;99.90;;;;;;5057901;28;20640;-81
2022/04/12 00:03:02;;;;;;;24.30;6.17;;;5.00;99.90;;;;;;5057498;28;20204;-82
2022/04/12 00:05:28;;;;;;;9.23;5.87;;;5.00;99.90;;;;;;5056469;28;20512;-82
2022/04/12 00:07:54;;;;;;;6.50;5.70;;;4.90;99.90;;;;;;5057748;28;20174;-81
2022/04/12 00:10:20;;;;;;;8.47;5.50;;;4.90;99.90;;;;;;5057706;28;20197;-81
2022/04/12 00:12:46;;;;;;;10.37;5.40;;;4.80;99.90;;;;;;5057601;28;20263;-82
2022/04/12 00:15:12;;;;;;;8.40;5.40;;;4.70;99.90;;;;;;5056626;28;20186;-82
2022/04/12 00:20:26;;;;;;;8.87;5.50;;;4.60;99.90;;;;;;5057796;28;20173;-81
2022/04/12 00:22:56;;;;;;;10.03;5.97;;;4.60;99.90;;;;;;5057540;28;20669;-82
2022/04/12 00:25:23;;;;;;;7.33;5.90;;;4.60;99.90;;;;;;5057609;28;20185;-82
2022/04/12 00:27:51;;;;;;;6.97;5.63;;;4.60;99.90;;;;;;5057341;28;20512;-82
2022/04/12 00:30:17;;;;;;;9.90;6.03;;;4.70;99.90;;;;;;5057548;28;20300;-79
2022/04/12 00:32:42;;;;;;;10.87;5.93;;;4.70;99.90;;;;;;5055906;28;20182;-78
2022/04/12 00:35:08;;;;;;;8.90;6.27;;;4.70;99.90;;;;;;5057502;28;20507;-78
2022/04/12 00:37:35;;;;;;;9.80;6.40;;;4.70;99.90;;;;;;5057099;28;20181;-78
2022/04/12 00:40:00;;;;;;;9.97;6.30;;;4.80;99.90;;;;;;5057192;28;20169;-79
2022/04/12 00:42:26;;;;;;;8.80;6.13;;;4.80;99.90;;;;;;5055834;28;20201;-78
2022/04/12 00:44:52;;;;;;;10.07;6.13;;;4.80;99.90;;;;;;5057072;28;20604;-79
2022/04/12 00:47:18;;;;;;;8.00;6.07;;;4.80;99.90;;;;;;5056934;28;20570;-78
2022/04/12 00:49:44;;;;;;;9.47;6.70;;;4.80;99.90;;;;;;5056741;28;20182;-78
2022/04/12 00:52:11;;;;;;;13.87;7.53;;;4.80;99.90;;;;;;5055381;28;20187;-77
2022/04/12 00:54:38;;;;;;;12.80;6.67;;;4.90;99.90;;;;;;5055532;28;20225;-78
2022/04/12 00:57:06;;;;;;;10.47;7.00;;;4.90;99.90;;;;;;5056773;28;20674;-78
2022/04/12 00:59:32;;;;;;;9.80;6.77;;;5.00;99.90;;;;;;5056606;28;20202;-80
2022/04/12 01:01:58;;;;;;;9.70;6.93;;;5.00;99.90;;;;;;5056835;28;20602;-81
2022/04/12 01:04:24;;;;;;;12.00;6.60;;;5.00;99.90;;;;;;5056861;28;20178;-81
2022/04/12 01:06:51;;;;;;;13.37;6.93;;;5.00;99.90;;;;;;5056572;28;20200;-80
2022/04/12 01:09:17;;;;;;;12.50;7.37;;;5.00;99.90;;;;;;5056679;28;20170;-81
2022/04/12 01:11:48;;;;;;;9.00;6.77;;;5.00;99.90;;;;;;5056444;28;20173;-82
2022/04/12 01:14:15;;;;;;;9.50;6.63;;;5.10;99.90;;;;;;5056406;28;20540;-81
2022/04/12 01:16:41;;;;;;;12.67;6.97;;;5.10;99.90;;;;;;5056317;28;20615;-81
2022/04/12 01:19:06;;;;;;;11.47;6.53;;;5.10;99.90;;;;;;5056396;28;20339;-81
2022/04/12 01:21:42;;;;;;;8.93;6.83;;;5.00;99.90;;;;;;5056449;28;20162;-82
2022/04/12 01:24:08;;;;;;;10.57;6.50;;;5.00;99.90;;;;;;5056329;28;20619;-80
2022/04/12 01:26:34;;;;;;;9.60;6.33;;;5.00;99.90;;;;;;5055846;28;20257;-81
2022/04/12 01:28:59;;;;;;;9.77;7.00;;;5.00;99.90;;;;;;5056532;28;20182;-79
2022/04/12 01:31:26;;;;;;;9.57;6.63;;;5.00;99.90;;;;;;5054874;28;20166;-80
2022/04/12 01:33:53;;;;;;;11.77;7.23;;;5.00;99.90;;;;;;5056277;28;20201;-82
2022/04/12 01:36:19;;;;;;;10.53;6.80;;;5.00;99.90;;;;;;5055403;28;20551;-82
2022/04/12 01:38:45;;;;;;;10.03;6.93;;;5.00;99.90;;;;;;5055953;28;20182;-78
2022/04/12 01:41:11;;;;;;;13.10;6.90;;;5.00;99.90;;;;;;5056126;28;20170;-81
2022/04/12 01:43:37;;;;;;;13.63;6.87;;;5.00;99.90;;;;;;5055824;28;20220;-82
2022/04/12 01:46:03;;;;;;;9.80;7.17;;;5.00;99.90;;;;;;5056016;28;20560;-81
2022/04/12 01:48:29;;;;;;;10.63;6.53;;;5.00;99.90;;;;;;5056005;28;20185;-82
2022/04/12 01:50:55;;;;;;;10.17;7.33;;;5.00;99.90;;;;;;5055560;28;20208;-79
2022/04/12 01:53:20;;;;;;;9.47;6.07;;;5.00;99.90;;;;;;5055679;28;20201;-81
2022/04/12 01:55:46;;;;;;;11.33;7.07;;;5.00;99.90;;;;;;5055760;28;20184;-81
2022/04/12 01:58:12;;;;;;;13.47;7.37;;;4.90;99.90;;;;;;5055730;28;20185;-81
2022/04/12 02:00:38;;;;;;;11.80;6.80;;;4.90;99.90;;;;;;5054600;28;20181;-81
2022/04/12 02:03:04;;;;;;;12.40;7.10;;;4.90;99.90;;;;;;5055607;28;20177;-81
2022/04/12 02:05:30;;;;;;;9.50;6.40;;;4.90;99.90;;;;;;5054017;28;20273;-79
2022/04/12 02:07:56;;;;;;;11.13;6.37;;;4.90;99.90;;;;;;5055729;28;20213;-81
2022/04/12 02:10:22;;;;;;;8.77;6.37;;;4.90;99.90;;;;;;5055395;28;20515;-82
2022/04/12 02:12:49;;;;;;;7.90;6.40;;;4.80;99.90;;;;;;5054788;28;20253;-81
2022/04/12 02:15:15;;;;;;;11.50;6.30;;;4.80;99.90;;;;;;5055509;28;20593;-82
2022/04/12 02:17:41;;;;;;;12.63;7.27;;;4.80;99.90;;;;;;5055060;28;20232;-81
2022/04/12 02:20:08;;;;;;;10.40;7.30;;;4.80;99.90;;;;;;5055304;28;20174;-82
2022/04/12 02:22:35;;;;;;;10.17;6.30;;;4.80;99.90;;;;;;5054717;28;20181;-82
2022/04/12 02:25:01;;;;;;;10.40;6.43;;;4.80;99.90;;;;;;5055124;28;20173;-81
2022/04/12 02:27:26;;;;;;;10.63;6.77;;;4.80;99.90;;;;;;5055052;28;20182;-81
2022/04/12 02:29:52;;;;;;;9.33;6.90;;;4.70;99.90;;;;;;5054859;28;20178;-81
2022/04/12 02:32:18;;;;;;;14.83;7.10;;;4.70;99.90;;;;;;5055071;28;20166;-81
2022/04/12 02:37:19;;;;;;;12.90;6.73;;;4.70;99.90;;;;;;5292828;22;20595;-81
2022/04/12 02:39:45;;;;;;;10.30;6.67;;;4.60;99.90;;;;;;5015654;28;20177;-82
2022/04/12 02:42:10;;;;;;;8.43;6.40;;;4.60;99.90;;;;;;5015348;28;20198;-82
2022/04/12 02:44:36;;;;;;;11.63;7.23;;;4.60;99.90;;;;;;5013894;28;20386;-82
2022/04/12 02:47:02;;;;;;;8.00;6.63;;;4.60;99.90;;;;;;5015373;28;20250;-82
2022/04/12 02:49:27;;;;;;;11.37;6.97;;;4.60;99.90;;;;;;5015198;28;20559;-82
2022/04/12 02:51:53;;;;;;;9.83;6.03;;;4.50;99.90;;;;;;5015004;28;20521;-82
2022/04/12 02:54:19;;;;;;;13.97;6.97;;;4.50;99.90;;;;;;5015081;28;20222;-81
2022/04/12 02:56:44;;;;;;;11.20;7.07;;;4.50;99.90;;;;;;5014978;28;20254;-82
2022/04/12 02:59:10;;;;;;;11.70;7.07;;;4.50;99.90;;;;;;5015121;28;20175;-82
2022/04/12 03:01:36;;;;;;;12.63;7.00;;;4.50;99.90;;;;;;5015054;28;20167;-82
2022/04/12 03:04:02;;;;;;;9.07;6.73;;;4.50;99.90;;;;;;5014289;28;20618;-82
2022/04/12 03:06:27;;;;;;;10.53;7.03;;;4.40;99.90;;;;;;5014851;28;20175;-82
2022/04/12 03:08:53;;;;;;;11.27;6.53;;;4.40;99.90;;;;;;5014877;28;20251;-82
2022/04/12 03:11:19;;;;;;;9.57;6.47;;;4.40;99.90;;;;;;5014858;28;20172;-79
2022/04/12 03:13:45;;;;;;;10.03;7.03;;;4.40;99.90;;;;;;5014858;28;20242;-82
2022/04/12 03:16:10;;;;;;;8.50;6.57;;;4.40;99.90;;;;;;5014658;28;20175;-82
2022/04/12 03:18:36;;;;;;;14.57;7.13;;;4.40;99.90;;;;;;5014698;28;20175;-81
2022/04/12 03:21:02;;;;;;;10.53;6.97;;;4.40;99.90;;;;;;5014758;28;20198;-82
2022/04/12 03:23:27;;;;;;;12.20;7.03;;;4.30;99.90;;;;;;5013766;28;20217;-82
2022/04/12 03:25:53;;;;;;;10.97;6.63;;;4.30;99.90;;;;;;5014673;28;20176;-82
2022/04/12 03:28:19;;;;;;;11.50;7.30;;;4.30;99.90;;;;;;5014729;28;20183;-82
2022/04/12 03:30:44;;;;;;;12.47;7.70;;;4.30;99.90;;;;;;5014717;28;20163;-82
2022/04/12 03:33:10;;;;;;;11.30;6.80;;;4.30;99.90;;;;;;4996794;28;20221;-82
2022/04/12 03:35:36;;;;;;;14.83;7.63;;;4.20;99.90;;;;;;5013987;28;20179;-81
2022/04/12 03:38:02;;;;;;;15.77;6.90;;;4.20;99.90;;;;;;5014788;28;20210;-83
2022/04/12 03:40:32;;;;;;;10.83;6.67;;;4.20;99.90;;;;;;5014587;28;20185;-82
2022/04/12 03:43:03;;;;;;;13.83;6.67;;;4.20;99.90;;;;;;5014645;28;20180;-82
2022/04/12 03:45:29;;;;;;;14.37;7.37;;;4.20;99.90;;;;;;5014363;28;20175;-81
2022/04/12 03:47:55;;;;;;;12.03;7.47;;;4.20;99.90;;;;;;5014393;28;20167;-82
2022/04/12 03:50:22;;;;;;;15.90;7.10;;;4.20;99.90;;;;;;5014362;28;20650;-82
2022/04/12 03:52:48;;;;;;;9.07;6.63;;;4.20;99.90;;;;;;5014300;28;20205;-82
2022/04/12 03:55:14;;;;;;;11.50;6.87;;;4.10;99.90;;;;;;4996786;28;20210;-82
2022/04/12 03:57:40;;;;;;;10.67;7.00;;;4.10;99.90;;;;;;4996653;28;20222;-81
2022/04/12 04:00:08;;;;;;;8.30;6.67;;;4.10;99.90;;;;;;5014455;28;20156;-82
2022/04/12 04:02:37;;;;;;;14.53;7.43;;;4.10;99.90;;;;;;5014097;28;20254;-82
2022/04/12 04:05:04;;;;;;;9.60;7.13;;;4.10;99.90;;;;;;5014345;28;20641;-82
2022/04/12 04:07:30;;;;;;;10.00;6.90;;;4.10;99.90;;;;;;5014210;28;20270;-82
2022/04/12 04:09:55;;;;;;;10.17;6.63;;;4.10;99.90;;;;;;5014242;28;20262;-83
2022/04/12 04:12:22;;;;;;;12.33;7.00;;;4.10;99.90;;;;;;5014151;28;20180;-82
2022/04/12 04:14:48;;;;;;;11.90;6.53;;;4.00;99.90;;;;;;5013923;28;20580;-82
2022/04/12 04:17:14;;;;;;;11.77;6.73;;;4.00;99.90;;;;;;5013683;28;20265;-82
2022/04/12 04:19:40;;;;;;;8.83;6.77;;;4.00;99.90;;;;;;5014016;28;20254;-82
2022/04/12 04:22:06;;;;;;;10.80;6.97;;;4.00;99.90;;;;;;5014159;28;20483;-81
2022/04/12 04:24:32;;;;;;;10.77;6.67;;;3.90;99.90;;;;;;5012844;28;20183;-82
2022/04/12 04:26:58;;;;;;;12.17;7.03;;;3.90;99.90;;;;;;5014165;28;20270;-82
2022/04/12 04:29:27;;;;;;;11.93;6.80;;;3.90;99.90;;;;;;5014219;28;20477;-82
2022/04/12 04:31:53;;;;;;;10.63;6.90;;;3.90;99.90;;;;;;5013711;28;20634;-82
2022/04/12 04:34:19;;;;;;;13.77;7.20;;;3.90;99.90;;;;;;5014182;28;20302;-82
2022/04/12 04:36:45;;;;;;;10.30;7.30;;;3.90;99.90;;;;;;5017299;28;20780;-82
2022/04/12 04:39:10;;;;;;;9.70;6.67;;;3.90;99.90;;;;;;5017673;28;20187;-81
2022/04/12 04:41:36;;;;;;;8.63;7.10;;;3.90;99.90;;;;;;5017701;28;20175;-82
2022/04/12 04:44:02;;;;;;;9.53;6.70;;;3.90;99.90;;;;;;5017410;28;20197;-81
2022/04/12 04:46:29;;;;;;;8.23;6.63;;;3.90;99.90;;;;;;5017417;28;20578;-82
2022/04/12 04:48:55;;;;;;;10.80;6.20;;;3.80;99.90;;;;;;5017400;28;20179;-82
2022/04/12 04:51:20;;;;;;;9.60;6.97;;;3.90;99.90;;;;;;5008459;28;20252;-81
2022/04/12 04:53:55;;;;;;;11.03;6.63;;;3.90;99.90;;;;;;4997638;28;20211;-82
2022/04/12 04:56:21;;;;;;;12.07;6.50;;;4.00;99.90;;;;;;5017315;28;20163;-82
2022/04/12 04:58:47;;;;;;;8.63;6.53;;;3.90;99.90;;;;;;5017006;28;20266;-81
2022/04/12 05:01:13;;;;;;;9.90;6.63;;;3.90;99.90;;;;;;5017134;28;20217;-83
2022/04/12 05:03:38;;;;;;;12.03;6.80;;;3.90;99.90;;;;;;5016609;28;20256;-81
2022/04/12 05:06:04;;;;;;;9.87;7.33;;;4.00;99.90;;;;;;5017133;28;20167;-83
2022/04/12 05:08:30;;;;;;;8.90;6.50;;;4.00;99.90;;;;;;5017136;28;20167;-83
2022/04/12 05:10:56;;;;;;;9.70;6.40;;;4.00;99.90;;;;;;5016977;28;20168;-82
2022/04/12 05:13:21;;;;;;;10.57;6.63;;;4.10;99.90;;;;;;5007182;28;20207;-82
2022/04/12 05:15:47;;;;;;;9.07;6.50;;;4.10;99.90;;;;;;5011362;28;20214;-82
2022/04/12 05:18:13;;;;;;;8.63;6.10;;;4.20;99.90;;;;;;5015251;28;20194;-83
2022/04/12 05:20:38;;;;;;;7.33;5.73;;;4.20;99.90;;;;;;4999361;28;20521;-82
2022/04/12 05:23:04;;;;;;;8.87;6.53;;;4.30;99.90;;;;;;5016165;28;20179;-82
2022/04/12 05:25:30;;;;;;;8.43;6.07;;;4.30;99.90;;;;;;5016761;28;20182;-82
2022/04/12 05:27:56;;;;;;;9.67;6.13;;;4.30;99.90;;;;;;5016636;28;20175;-82
2022/04/12 05:30:22;;;;;;;10.57;6.77;;;4.40;99.90;;;;;;5016942;28;20238;-82
2022/04/12 05:32:48;;;;;;;12.50;7.27;;;4.40;99.90;;;;;;5016539;28;20183;-83
2022/04/12 05:35:14;;;;;;;8.90;6.63;;;4.50;99.90;;;;;;5016595;28;20183;-82
2022/04/12 05:37:44;;;;;;;13.20;7.00;;;4.50;99.90;;;;;;5016577;28;20222;-82
2022/04/12 05:40:11;;;;;;;11.33;6.90;;;4.50;99.90;;;;;;5016642;28;20179;-81
2022/04/12 05:42:38;;;;;;;8.23;6.20;;;4.50;99.90;;;;;;5016625;28;20175;-82
2022/04/12 05:45:04;;;;;;;8.27;6.67;;;4.60;99.90;;;;;;5016660;28;20242;-82
2022/04/12 05:47:40;;;;;;;10.40;6.87;;;4.60;99.90;;;;;;5015403;28;20496;-82
2022/04/12 05:50:06;;;;;;;9.83;6.23;;;4.70;99.90;;;;;;5016625;28;20171;-82
2022/04/12 05:52:32;;;;;;;12.50;6.53;;;4.80;99.90;;;;;;5016295;28;20629;-82
2022/04/12 05:54:58;;;;;;;9.37;5.90;;;4.90;99.90;;;;;;5014781;28;20306;-83
2022/04/12 05:57:24;;;;;;;10.13;6.27;;;4.90;99.90;;;;;;5016100;28;20626;-82
2022/04/12 05:59:49;;;;;;;11.70;6.23;;;5.00;99.90;;;;;;5016132;28;20183;-81
2022/04/12 06:02:15;;;;;;;9.57;6.70;;;5.10;99.90;;;;;;5015973;28;20168;-81
2022/04/12 06:04:41;;;;;;;12.73;5.40;;;5.30;99.90;;;;;;5016296;28;20193;-82
2022/04/12 06:07:06;;;;;;;7.70;4.80;;;5.40;99.90;;;;;;5016084;28;20520;-82
2022/04/12 06:09:32;;;;;;;10.47;4.77;;;5.60;99.90;;;;;;5015814;28;20190;-82
2022/04/12 06:11:58;;;;;;;8.03;4.90;;;5.90;99.90;;;;;;5015882;28;20217;-82
2022/04/12 06:14:23;;;;;;;9.43;4.20;;;6.20;99.90;;;;;;5015734;28;20211;-82
2022/04/12 06:16:49;;;;;;;6.03;4.13;;;6.40;99.90;;;;;;5015857;28;20183;-83
2022/04/12 06:19:15;;;;;;;6.83;4.27;;;6.60;99.90;;;;;;5015915;28;20245;-83
2022/04/12 06:21:41;;;;;;;5.43;3.80;;;6.80;99.90;;;;;;5015664;28;20191;-82
2022/04/12 06:24:06;;;;;;;4.57;3.73;;;6.90;99.90;;;;;;5015641;28;20179;-83
2022/04/12 06:26:32;;;;;;;5.23;3.43;;;7.10;99.90;;;;;;5015593;28;20562;-83
2022/04/12 06:28:58;;;;;;;5.80;3.27;;;7.30;99.90;;;;;;5014420;28;20526;-83
2022/04/12 06:31:24;;;;;;;6.97;3.70;;;7.40;99.90;;;;;;5015581;28;20251;-82
2022/04/12 06:33:50;;;;;;;8.80;4.07;;;7.40;99.90;;;;;;5015439;28;20206;-82
2022/04/12 06:36:16;;;;;;;4.13;3.67;;;7.50;99.90;;;;;;5015280;28;20310;-83
2022/04/12 06:38:41;;;;;;;8.07;3.67;;;7.50;99.90;;;;;;5015278;28;20249;-82
2022/04/12 06:41:07;;;;;;;7.53;3.40;;;7.60;99.90;;;;;;5015649;28;20235;-82
2022/04/12 06:43:33;;;;;;;5.73;3.27;;;7.70;99.90;;;;;;5015331;28;20573;-82
2022/04/12 06:45:58;;;;;;;4.20;2.77;;;7.80;99.90;;;;;;5015305;28;20214;-81
2022/04/12 06:48:24;;;;;;;5.73;3.10;;;8.00;99.90;;;;;;5015272;28;20226;-83
2022/04/12 06:50:50;;;;;;;7.37;3.00;;;8.10;99.90;;;;;;5015203;28;20613;-82
2022/04/12 06:53:15;;;;;;;9.07;3.67;;;8.20;99.90;;;;;;5015003;28;20691;-82
2022/04/12 06:55:41;;;;;;;4.07;2.57;;;8.20;99.90;;;;;;5015021;28;20231;-82
2022/04/12 06:58:07;;;;;;;5.57;3.00;;;8.30;99.90;;;;;;5015090;28;20190;-82
2022/04/12 07:00:33;;;;;;;9.20;3.57;;;8.40;99.90;;;;;;5015148;28;20187;-82
2022/04/12 07:02:59;;;;;;;5.10;2.97;;;8.50;99.90;;;;;;5014957;28;20173;-83
2022/04/12 07:05:25;;;;;;;6.10;2.70;;;8.60;99.90;;;;;;5015072;28;20179;-83
2022/04/12 07:07:53;;;;;;;5.40;2.57;;;8.70;99.90;;;;;;5014780;28;20266;-82
2022/04/12 07:10:18;;;;;;;4.23;2.73;;;8.80;99.90;;;;;;5014882;28;20385;-83
2022/04/12 07:12:45;;;;;;;8.27;3.87;;;8.90;99.90;;;;;;5014810;28;20170;-83
2022/04/12 07:15:12;;;;;;;5.40;2.93;;;8.90;99.90;;;;;;5014850;28;20606;-83
2022/04/12 07:17:38;;;;;;;7.90;3.33;;;8.90;99.90;;;;;;5014907;28;20199;-82
2022/04/12 07:20:04;;;;;;;5.97;3.10;;;9.00;99.90;;;;;;5014840;28;20171;-82
2022/04/12 07:22:30;;;;;;;5.60;3.50;;;9.10;99.90;;;;;;5014819;28;20610;-83
2022/04/12 07:24:55;;;;;;;6.90;2.97;;;9.20;99.90;;;;;;5013555;28;20179;-83
2022/04/12 07:27:21;;;;;;;6.03;2.90;;;9.30;99.90;;;;;;5014800;28;20179;-83
2022/04/12 07:29:47;;;;;;;4.93;2.93;;;9.40;99.90;;;;;;5014773;28;20512;-82
2022/04/12 07:32:12;;;;;;;7.63;3.03;;;9.50;99.90;;;;;;5014696;28;20171;-82
2022/04/12 07:34:38;;;;;;;6.10;2.67;;;9.50;99.90;;;;;;5014539;28;20792;-82
2022/04/12 07:37:04;;;;;;;5.73;3.07;;;9.60;99.90;;;;;;5014425;28;20301;-81
2022/04/12 07:39:30;;;;;;;8.27;3.03;;;9.60;99.90;;;;;;5014629;28;20175;-83
2022/04/12 07:41:56;;;;;;;6.03;3.20;;;9.70;99.90;;;;;;4997335;28;20226;-83
2022/04/12 07:44:22;;;;;;;8.27;3.07;;;9.80;99.90;;;;;;5013336;28;20282;-84
2022/04/12 07:46:48;;;;;;;4.83;3.17;;;9.90;99.90;;;;;;5014554;28;20207;-83
2022/04/12 07:49:13;;;;;;;6.07;3.13;;;10.00;99.90;;;;;;5014510;28;20194;-82
2022/04/12 07:51:41;;;;;;;8.25;2.60;;;10.10;99.90;;;;;;5014438;28;20172;-82
2022/04/12 07:54:07;;;;;;;4.95;3.00;;;10.10;99.90;;;;;;5014686;28;20211;-83
2022/04/12 08:02:25;;;;;;;4.25;2.80;;;10.30;99.90;;;;;;5756152;23;20820;-78
2022/04/12 08:04:51;;;;;;;6.13;3.13;;;10.30;99.90;;;;;;4896615;29;20630;-80
2022/04/12 08:07:17;;;;;;;4.43;3.00;;;10.40;99.90;;;;;;4897797;29;20180;-80
2022/04/12 08:09:42;;;;;;;5.50;2.70;;;10.40;99.90;;;;;;4898826;29;20187;-78
2022/04/12 08:12:08;;;;;;;3.92;2.78;;;10.50;99.90;;;;;;4901891;29;20195;-79
2022/04/12 08:14:33;;;;;;;3.80;2.90;;;10.50;99.90;;;;;;4902074;29;20211;-79
2022/04/12 08:16:59;;;;;;;8.52;3.00;;;10.50;99.90;;;;;;4902196;29;20179;-80
2022/04/12 08:19:25;;;;;;;3.42;2.42;;;10.50;99.90;;;;;;4908065;29;20187;-78
2022/04/12 08:21:50;;;;;;;7.07;3.13;;;10.60;99.90;;;;;;4920453;29;20174;-81
2022/04/12 08:24:16;;;;;;;6.28;2.92;;;10.70;99.90;;;;;;4919165;29;20602;-81
2022/04/12 08:26:42;;;;;;;5.53;2.60;;;10.80;99.90;;;;;;4919436;29;20191;-80
2022/04/12 08:29:07;;;;;;;4.70;2.70;;;11.00;99.90;;;;;;4918982;29;20187;-81
2022/04/12 08:31:33;;;;;;;6.68;3.25;;;11.10;99.90;;;;;;4920946;29;20197;-79
2022/04/12 08:33:59;;;;;;;4.38;2.85;;;11.20;99.90;;;;;;4920155;29;20213;-80
2022/04/12 08:36:25;;;;;;;6.38;3.30;;;11.40;99.90;;;;;;4921116;29;20249;-81
2022/04/12 08:38:51;;;;;;;6.70;3.03;;;11.50;99.90;;;;;;4919738;29;20182;-80
2022/04/12 08:41:18;;;;;;;3.03;2.58;;;11.60;99.10;;;;;;4920990;29;20189;-79
2022/04/12 08:43:44;;;;;;;3.35;2.75;;;11.70;98.90;;;;;;4921058;29;20190;-80
2022/04/12 08:46:11;;;;;;;3.65;2.67;;;11.90;98.70;;;;;;4919740;29;20179;-80
2022/04/12 08:48:38;;;;;;;6.75;3.08;;;11.90;99.10;;;;;;4919236;29;20182;-79
2022/04/12 08:51:05;;;;;;;5.28;2.80;;;12.00;98.40;;;;;;4920419;29;20302;-80
2022/04/12 08:53:31;;;;;;;5.43;3.13;;;12.10;97.90;;;;;;4920657;29;20213;-81
2022/04/12 08:55:57;;;;;;;7.75;2.78;;;12.30;98.70;;;;;;4919475;29;20183;-81
2022/04/12 08:58:24;;;;;;;5.05;2.88;;;12.50;98.10;;;;;;4919214;29;20265;-81
2022/04/12 09:00:50;;;;;;;4.65;2.72;;;12.60;98.60;;;;;;4921229;29;20178;-81
2022/04/12 09:03:16;;;;;;;5.13;2.60;;;12.80;99.20;;;;;;4920094;29;20258;-79
2022/04/12 09:05:42;;;;;;;5.57;2.78;;;13.00;98.10;;;;;;4920380;29;20206;-79
2022/04/12 09:08:23;;;;;;;3.50;2.50;;;13.00;95.70;;;;;;4919797;29;20182;-79
2022/04/12 09:10:56;;;;;;;4.47;2.55;;;13.00;96.20;;;;;;4920316;29;20164;-80
2022/04/12 09:13:21;;;;;;;3.13;2.53;;;13.00;95.90;;;;;;4919712;29;20203;-78
2022/04/12 09:15:47;;;;;;;4.80;2.60;;;13.10;96.70;;;;;;4920426;29;20189;-78
2022/04/12 09:18:13;;;;;;;4.18;2.55;;;13.20;96.40;;;;;;4919452;29;20610;-79
2022/04/12 09:20:41;;;;;;;3.92;2.33;;;13.20;96.30;;;;;;4919071;29;20606;-79
2022/04/12 09:23:15;;;;;;;4.13;2.47;;;13.20;95.30;;;;;;4918550;29;20254;-78
2022/04/12 09:25:54;;;;;;;5.57;2.63;;;13.20;94.80;;;;;;4919870;29;20178;-79
2022/04/12 09:28:20;;;;;;;3.75;2.30;;;13.30;94.30;;;;;;4918772;29;20174;-78
2022/04/12 09:30:46;;;;;;;3.13;2.50;;;13.40;95.20;;;;;;4920190;29;20230;-78
2022/04/12 09:33:12;;;;;;;4.22;2.70;;;13.50;95.40;;;;;;4919732;29;20214;-80
2022/04/12 09:35:38;;;;;;;5.20;2.80;;;13.60;94.60;;;;;;4919989;29;20673;-79
2022/04/12 09:38:04;;;;;;;7.85;3.35;;;13.80;94.30;;;;;;4918686;29;20585;-78
2022/04/12 09:40:30;;;;;;;5.85;2.90;;;13.80;92.70;;;;;;4920015;29;20203;-79
2022/04/12 09:42:59;;;;;;;3.50;2.78;;;13.90;93.30;;;;;;4919747;29;20178;-80
2022/04/12 09:45:30;;;;;;;6.43;3.50;;;14.00;94.60;;;;;;4919890;29;20515;-80
2022/04/12 09:48:02;;;;;;;6.20;3.03;;;14.10;93.50;;;;;;4919276;29;20233;-79
2022/04/12 09:50:30;;;;;;;4.55;3.15;;;14.20;92.60;;;;;;4919740;29;20167;-80
2022/04/12 09:53:00;;;;;;;4.10;3.10;;;14.30;93.60;;;;;;4919721;29;20175;-80
2022/04/12 09:55:37;;;;;;;5.10;2.75;;;14.40;93.00;;;;;;4918159;29;20185;-80
2022/04/12 09:58:09;;;;;;;6.32;3.22;;;14.40;92.00;;;;;;4919277;29;20181;-79
2022/04/12 10:00:38;;;;;;;5.18;2.90;;;14.50;93.00;;;;;;4919599;29;20182;-80
2022/04/12 10:03:06;;;;;;;3.75;3.08;;;14.40;93.10;;;;;;4917634;29;20595;-80
2022/04/12 10:05:32;;;;;;;3.25;2.55;;;14.50;93.80;;;;;;4919566;29;20258;-80
2022/04/12 10:08:00;;;;;;;4.50;2.70;;;14.60;94.20;;;;;;4919472;29;20629;-79
2022/04/12 10:10:29;;;;;;;6.50;2.90;;;14.70;92.40;;;;;;4918153;29;20273;-79
2022/04/12 10:12:57;;;;;;;6.63;2.78;;;14.70;91.10;;;;;;4919284;29;20183;-79
2022/04/12 10:15:24;;;;;;;5.35;2.35;;;14.70;91.50;;;;;;4917709;29;20182;-80
2022/04/12 10:17:52;;;;;;;5.18;2.60;;;14.60;91.80;;;;;;4918971;29;20194;-80
2022/04/12 10:20:18;;;;;;;4.80;2.92;;;14.70;91.40;;;;;;4919246;29;20245;-81
2022/04/12 10:22:48;;;;;;;6.95;2.58;;;14.90;91.90;;;;;;4918959;29;20206;-81
2022/04/12 10:25:20;;;;;;;5.22;2.55;;;15.00;90.70;;;;;;4917747;29;20175;-79
2022/04/12 10:27:47;;;;;;;3.13;2.20;;;15.10;91.20;;;;;;4918906;29;20167;-80
2022/04/12 10:30:28;;;;;;;5.03;2.45;;;15.20;90.00;;;;;;4917783;29;20179;-82
2022/04/12 10:33:16;;;;;;;3.80;2.35;;;15.30;90.90;;;;;;4918280;29;20250;-82
2022/04/12 10:35:44;;;;;;;5.95;2.10;;;15.30;90.10;;;;;;4918945;29;20166;-79
2022/04/12 10:38:12;;;;;;;4.65;2.38;;;15.30;88.90;;;;;;4918676;29;20246;-80
2022/04/12 10:40:43;;;;;;;7.78;2.35;;;15.30;89.40;;;;;;4918664;29;20182;-80
2022/04/12 10:43:11;;;;;;;2.95;2.08;;;15.20;90.40;;;;;;4918981;29;20621;-79
2022/04/12 10:45:43;;;;;;;5.53;2.10;;;15.30;86.00;;;;;;4918813;29;20201;-81
2022/04/12 10:48:19;;;;;;;3.85;2.28;;;15.40;88.10;;;;;;4918423;29;20245;-84
2022/04/12 10:50:47;;;;;;;3.65;1.95;;;15.50;88.50;;;;;;4918443;29;20166;-82
2022/04/12 10:53:13;;;;;;;3.00;2.13;;;15.40;86.70;;;;;;4917132;29;20218;-79
2022/04/12 10:55:43;;;;;;;4.05;2.20;;;15.40;87.80;;;;;;4918638;29;20654;-80
2022/04/12 10:58:32;;;;;;;4.93;2.20;;;15.40;87.10;;;;;;4918336;29;20223;-80
2022/04/12 11:00:57;;;;;;;2.75;1.95;;;15.40;85.40;;;;;;4917082;29;20639;-79
2022/04/12 11:03:52;;;;;;;4.53;2.35;;;15.50;85.40;;;;;;4916582;29;20234;-79
2022/04/12 11:06:22;;;;;;;4.40;2.25;;;15.60;84.60;;;;;;4914798;29;20225;-78
2022/04/12 11:08:50;;;;;;;5.78;2.00;;;15.70;86.70;;;;;;4918418;29;20524;-79
2022/04/12 11:11:44;;;;;;;5.13;2.55;;;15.80;85.20;;;;;;4918416;29;20178;-78
2022/04/12 11:14:33;;;;;;;3.28;2.40;;;15.90;85.30;;;;;;4916809;29;20678;-80
2022/04/12 11:17:09;;;;;;;5.10;2.70;;;15.90;83.40;;;;;;4917075;29;20614;-80
2022/04/12 11:19:41;;;;;;;4.40;2.33;;;15.90;82.90;;;;;;4917580;29;20185;-79
2022/04/12 11:22:11;;;;;;;3.17;2.30;;;15.90;84.70;;;;;;4918093;29;20178;-78
2022/04/12 11:24:37;;;;;;;4.82;2.83;;;16.00;87.30;;;;;;4918554;29;20262;-79
2022/04/12 11:27:04;;;;;;;6.25;2.97;;;16.10;84.00;;;;;;4916812;29;20269;-79
2022/04/12 11:29:31;;;;;;;5.55;2.63;;;16.10;82.50;;;;;;4918045;29;20181;-79
2022/04/12 11:31:57;;;;;;;3.60;2.70;;;16.10;83.30;;;;;;4917864;29;20233;-81
2022/04/12 11:34:26;;;;;;;4.38;2.95;;;16.30;84.20;;;;;;4917650;29;20217;-79
2022/04/12 11:36:56;;;;;;;4.03;2.65;;;16.40;84.90;;;;;;4918109;29;20178;-80
2022/04/12 11:39:27;;;;;;;3.08;2.75;;;16.40;83.20;;;;;;4918073;29;20254;-79
2022/04/12 11:42:01;;;;;;;4.60;3.03;;;16.40;82.70;;;;;;4917985;29;20269;-79
2022/04/12 11:44:27;;;;;;;3.38;2.65;;;16.30;84.50;;;;;;4917390;29;20315;-78
2022/04/12 11:47:07;;;;;;;4.55;3.03;;;16.40;82.50;;;;;;4921853;29;20518;-79
2022/04/12 11:49:40;;;;;;;4.30;3.10;;;16.40;81.40;;;;;;4921622;29;20239;-79
2022/04/12 11:52:09;;;;;;;5.68;3.20;;;16.40;83.80;;;;;;4921909;29;20602;-80
2022/04/12 11:54:45;;;;;;;5.40;3.63;;;16.50;85.80;;;;;;4921752;29;20681;-79
2022/04/12 11:57:24;;;;;;;5.60;3.33;;;16.60;84.30;;;;;;4921819;29;20173;-79
2022/04/12 11:59:57;;;;;;;5.40;3.40;;;16.70;85.10;;;;;;4920531;29;20269;-78
2022/04/12 12:02:31;;;;;;;5.05;3.50;;;16.80;84.30;;;;;;4921400;29;20242;-79
2022/04/12 12:05:06;;;;;;;4.72;3.35;;;16.80;80.90;;;;;;4921300;29;20178;-78
2022/04/12 12:07:36;;;;;;;5.75;3.15;;;16.70;82.10;;;;;;4920376;29;20497;-80
2022/04/12 12:10:12;;;;;;;5.22;3.47;;;16.70;85.80;;;;;;4920111;29;20182;-78
2022/04/12 12:12:45;;;;;;;9.15;3.22;;;16.70;83.40;;;;;;4921153;29;20201;-78
2022/04/12 12:15:24;;;;;;;8.02;3.63;;;16.60;80.80;;;;;;4921504;29;20216;-80
2022/04/12 12:18:03;;;;;;;4.75;3.53;;;16.70;81.70;;;;;;4921052;29;20269;-79
2022/04/12 12:20:30;;;;;;;6.50;3.50;;;16.80;82.80;;;;;;4921094;29;20167;-79
2022/04/12 12:22:59;;;;;;;4.15;3.40;;;17.00;83.40;;;;;;4921379;29;20179;-78
2022/04/12 12:25:47;;;;;;;6.38;3.78;;;17.20;82.30;;;;;;4921321;29;20666;-79
2022/04/12 12:28:21;;;;;;;5.57;3.65;;;17.40;79.60;;;;;;4921266;29;20162;-78
2022/04/12 12:30:49;;;;;;;5.78;4.03;;;17.40;80.00;;;;;;4919979;29;20602;-79
2022/04/12 12:33:16;;;;;;;7.22;3.60;;;17.30;78.50;;;;;;4920773;29;20258;-80
2022/04/12 12:35:46;;;;;;;4.78;3.88;;;17.40;80.00;;;;;;4919710;29;20186;-79
2022/04/12 12:38:14;;;;;;;4.93;3.70;;;17.20;77.30;;;;;;4921131;29;20520;-78
2022/04/12 12:40:42;;;;;;;4.47;3.25;;;17.20;77.90;;;;;;4921161;29;20214;-78
2022/04/12 12:43:15;;;;;;;8.30;3.75;;;17.30;78.40;;;;;;4919645;29;20210;-78
2022/04/12 12:45:46;;;;;;;6.00;4.05;;;17.30;78.10;;;;;;4920961;29;20178;-79
2022/04/12 12:48:15;;;;;;;7.22;4.13;;;17.40;76.90;;;;;;4920787;29;20178;-78
2022/04/12 12:50:42;;;;;;;7.22;4.20;;;17.30;75.90;;;;;;4920798;29;20269;-78
2022/04/12 12:53:12;;;;;;;5.35;4.00;;;17.50;79.30;;;;;;4920758;29;20230;-78
2022/04/12 12:55:44;;;;;;;5.80;4.10;;;17.70;79.80;;;;;;4920677;29;20178;-81
2022/04/12 12:58:13;;;;;;;7.32;4.53;;;17.80;75.80;;;;;;4920652;29;20178;-79
2022/04/12 13:00:40;;;;;;;10.02;4.25;;;17.90;75.90;;;;;;4919589;29;20183;-79
2022/04/12 13:03:09;;;;;;;6.90;4.32;;;18.00;75.00;;;;;;4920168;29;20713;-79